Fivemiletown, United Kingdom
Current Conditions -  °F | °C
As of 1:50 PM on Thursday 30 Oct 2014 (Local Time) from EGAE Reporting Station
Drizzle Drizzle  
Wind Chill: 63°   Ceiling: 2200
Heat Index: 63°   Visibility: 4mi
Dew Point: 57°   Wind: 9mph
Humidity: 82%   Direction: 200°SSW
Pressure: 29.77"   Gusts: NA
Location:  54.38°N, 7.3°W
Report Text: EGAE 301350Z 20008KT 170V240 6000 DZ SCT015 BKN022 17/14 Q1008
Loading
Personal Weather Stations






























Interactive Weather Map
Tropical Storm Tracking
New forecast layout! Learn more

10-Day Weather Forecast

Advertisements
Track Severe Weather on mobile